createdAt,value
2023-05-22T00:04:23.389Z,12.10
2023-05-22T00:09:28.731Z,13.95
2023-05-22T00:14:30.474Z,15.30
2023-05-22T00:19:33.124Z,14.30
2023-05-22T00:24:35.875Z,14.82
2023-05-22T00:29:37.704Z,12.75
2023-05-22T00:34:39.534Z,12.57
2023-05-22T00:39:41.331Z,12.95
2023-05-22T00:44:43.280Z,12.37
2023-05-22T00:49:46.103Z,13.63
2023-05-22T00:54:50.381Z,14.27
2023-05-22T00:59:52.312Z,15.25
2023-05-22T01:04:58.074Z,14.57
2023-05-22T01:09:59.819Z,14.55
2023-05-22T01:15:21.916Z,14.03
2023-05-22T01:20:33.467Z,12.73
2023-05-22T01:25:35.218Z,14.00
2023-05-22T01:30:54.221Z,14.82
2023-05-22T01:35:58.305Z,16.25
2023-05-22T01:41:01.530Z,13.88
2023-05-22T01:46:03.982Z,15.57
2023-05-22T01:51:46.785Z,15.90
2023-05-22T01:56:56.975Z,13.25
2023-05-22T02:02:05.002Z,15.48
2023-05-22T02:07:12.321Z,15.93
2023-05-22T02:12:15.091Z,15.68
2023-05-22T02:17:21.942Z,14.95
2023-05-22T02:22:23.867Z,14.10
2023-05-22T02:27:25.685Z,14.70
2023-05-22T02:32:29.734Z,16.00
2023-05-22T02:37:31.726Z,18.77
2023-05-22T02:42:34.472Z,12.80
2023-05-22T02:52:39.464Z,13.15
2023-05-22T02:57:41.269Z,16.13
2023-05-22T03:02:43.106Z,14.90
2023-05-22T03:07:48.113Z,14.32
2023-05-22T03:12:54.068Z,13.95
2023-05-22T03:17:56.490Z,13.27
2023-05-22T03:22:58.485Z,15.43
2023-05-22T03:28:00.943Z,19.47
2023-05-22T03:33:06.005Z,15.20
2023-05-22T03:38:07.849Z,15.00
2023-05-22T03:43:09.875Z,12.97
2023-05-22T03:48:12.655Z,14.63
2023-05-22T03:53:14.664Z,13.90
2023-05-22T03:58:16.858Z,15.20
2023-05-22T04:03:19.851Z,11.60
2023-05-22T04:08:22.567Z,11.95
2023-05-22T04:13:24.325Z,15.40
2023-05-22T04:18:26.073Z,13.82
2023-05-22T04:23:27.878Z,18.90
2023-05-22T04:28:30.375Z,18.03
2023-05-22T04:33:34.312Z,16.17
2023-05-22T04:38:37.250Z,17.80
2023-05-22T04:48:42.011Z,19.10
2023-05-22T04:53:44.124Z,16.75
2023-05-22T04:58:48.736Z,15.97
2023-05-22T05:03:50.905Z,17.17
2023-05-22T05:08:53.414Z,16.77
2023-05-22T05:13:55.175Z,17.23
2023-05-22T05:18:58.355Z,15.60
2023-05-22T05:24:00.388Z,17.10
2023-05-22T05:29:02.613Z,16.48
2023-05-22T05:34:13.473Z,18.05
2023-05-22T05:39:32.882Z,21.38
2023-05-22T05:44:38.188Z,15.50
2023-05-22T05:49:41.960Z,16.20
2023-05-22T05:54:47.428Z,16.17
2023-05-22T05:59:53.607Z,15.75
2023-05-22T06:05:19.097Z,18.33
2023-05-22T06:10:23.849Z,16.95
2023-05-22T06:15:36.256Z,17.92
2023-05-22T06:20:39.473Z,16.10
2023-05-22T06:25:42.193Z,14.70
2023-05-22T06:30:44.066Z,18.17
2023-05-22T06:35:50.716Z,13.55
2023-05-22T06:40:52.964Z,16.17
2023-05-22T06:45:58.352Z,14.88
2023-05-22T06:51:24.550Z,16.30
2023-05-22T06:56:33.072Z,14.20
2023-05-22T07:01:41.502Z,15.15
2023-05-22T07:06:48.697Z,16.27
2023-05-22T07:11:50.904Z,16.05
2023-05-22T07:16:53.096Z,16.37
2023-05-22T07:22:01.956Z,15.40
2023-05-22T07:27:05.514Z,15.98
2023-05-22T07:32:08.629Z,16.98
2023-05-22T07:37:13.179Z,14.80
2023-05-22T07:42:17.376Z,15.38
2023-05-22T07:47:26.487Z,15.30
2023-05-22T07:52:29.021Z,17.65
2023-05-22T07:57:31.079Z,14.02
2023-05-22T08:02:39.101Z,15.30
2023-05-22T08:07:41.480Z,17.95
2023-05-22T08:12:43.557Z,16.07
2023-05-22T08:17:45.300Z,16.02
2023-05-22T08:22:47.414Z,15.23
2023-05-22T08:27:49.456Z,14.48
2023-05-22T08:32:51.254Z,14.90
2023-05-22T08:37:53.148Z,16.60
2023-05-22T08:42:57.440Z,16.77
2023-05-22T08:48:00.058Z,14.07
2023-05-22T08:53:03.245Z,15.25
2023-05-22T08:58:05.649Z,14.50
2023-05-22T09:03:10.255Z,14.90
2023-05-22T09:08:19.745Z,16.83
2023-05-22T09:13:27.260Z,17.33
2023-05-22T09:18:32.255Z,14.32
2023-05-22T09:23:34.721Z,16.05
2023-05-22T09:28:37.738Z,17.42
2023-05-22T09:33:39.507Z,15.35
2023-05-22T09:38:41.393Z,15.97
2023-05-22T09:43:50.853Z,17.53
2023-05-22T09:48:53.024Z,15.88
2023-05-22T09:54:03.367Z,15.57
2023-05-22T09:59:09.272Z,16.48
2023-05-22T10:04:14.317Z,15.50
2023-05-22T10:09:19.631Z,17.05
2023-05-22T10:14:22.402Z,16.15
2023-05-22T10:19:27.401Z,12.00
2023-05-22T10:24:29.993Z,13.68
2023-05-22T10:34:53.756Z,13.57
2023-05-22T10:40:08.988Z,13.02
2023-05-22T10:45:11.300Z,13.45
2023-05-22T10:50:13.345Z,13.38
2023-05-22T10:55:15.586Z,14.38
2023-05-22T11:00:19.265Z,12.32
2023-05-22T11:05:25.930Z,11.18
2023-05-22T11:10:47.827Z,14.90
2023-05-22T11:15:49.581Z,15.40
2023-05-22T11:20:53.722Z,14.45
2023-05-22T11:25:55.726Z,11.65
2023-05-22T11:30:57.831Z,14.07
2023-05-22T11:35:59.948Z,12.27
2023-05-22T11:41:01.736Z,12.00
2023-05-22T11:46:07.883Z,11.65
2023-05-22T11:51:10.527Z,10.88
2023-05-22T11:56:12.290Z,10.93
2023-05-22T12:06:17.827Z,10.77
2023-05-22T12:11:19.760Z,14.95
2023-05-22T12:16:22.732Z,13.23
2023-05-22T12:21:26.795Z,13.07
2023-05-22T12:26:28.568Z,14.75
2023-05-22T12:31:38.317Z,10.93
2023-05-22T12:36:41.671Z,12.57
2023-05-22T12:41:44.359Z,13.82
2023-05-22T12:46:46.286Z,8.57
2023-05-22T12:51:48.117Z,10.07
2023-05-22T12:56:49.864Z,8.52
2023-05-22T13:01:51.893Z,11.32
2023-05-22T13:06:53.851Z,9.82
2023-05-22T13:11:55.743Z,9.32
2023-05-22T13:16:57.833Z,12.18
2023-05-22T13:27:01.864Z,11.77
2023-05-22T13:32:04.316Z,8.73
2023-05-22T13:37:06.651Z,8.68
2023-05-22T13:42:08.492Z,9.20
2023-05-22T13:47:11.173Z,9.80
2023-05-22T13:52:13.439Z,10.45
2023-05-22T13:57:17.585Z,9.30
2023-05-22T14:02:20.801Z,9.43
2023-05-22T14:07:22.543Z,8.75
2023-05-22T14:12:24.380Z,11.48
2023-05-22T14:17:26.479Z,10.23
2023-05-22T14:22:30.629Z,8.45
2023-05-22T14:27:34.671Z,13.77
2023-05-22T14:32:36.457Z,8.57
2023-05-22T14:37:41.276Z,8.77
2023-05-22T14:42:43.102Z,8.32
2023-05-22T14:47:45.306Z,8.52
2023-05-22T14:52:48.412Z,7.95
2023-05-22T14:57:50.284Z,7.35
2023-05-22T15:02:52.253Z,7.28
2023-05-22T15:13:00.601Z,9.20
2023-05-22T15:18:04.714Z,10.13
2023-05-22T15:23:06.807Z,8.05
2023-05-22T15:28:08.600Z,7.70
2023-05-22T15:33:11.613Z,6.68
2023-05-22T15:38:15.413Z,8.30
2023-05-22T15:43:17.544Z,6.82
2023-05-22T15:53:21.970Z,7.67
2023-05-22T15:58:26.432Z,7.20
2023-05-22T16:03:28.276Z,7.07
2023-05-22T16:08:30.148Z,8.73
2023-05-22T16:13:33.313Z,6.75
2023-05-22T16:18:35.659Z,11.23
2023-05-22T16:23:37.372Z,8.48
2023-05-22T16:28:39.090Z,6.60
2023-05-22T16:33:41.792Z,7.05
2023-05-22T16:38:43.608Z,8.52
2023-05-22T16:43:45.469Z,7.03
2023-05-22T16:48:47.310Z,7.22
2023-05-22T16:53:50.802Z,7.55
2023-05-22T16:58:52.617Z,9.02
2023-05-22T17:03:54.752Z,7.25
2023-05-22T17:08:56.594Z,8.60
2023-05-22T17:13:58.311Z,9.30
2023-05-22T17:24:02.168Z,8.40
2023-05-22T17:29:03.920Z,10.63
2023-05-22T17:34:07.814Z,10.63
2023-05-22T17:39:09.734Z,6.95
2023-05-22T17:44:11.802Z,9.13
2023-05-22T17:49:13.480Z,11.07
2023-05-22T17:54:16.037Z,9.30
2023-05-22T17:59:18.226Z,8.45
2023-05-22T18:04:20.497Z,9.70
2023-05-22T18:09:22.197Z,12.10
2023-05-22T18:14:24.005Z,10.48
2023-05-22T18:19:26.117Z,8.40
2023-05-22T18:24:28.472Z,12.68
2023-05-22T18:29:30.627Z,12.13
2023-05-22T18:39:34.288Z,8.20
2023-05-22T18:44:36.264Z,13.77
2023-05-22T18:49:38.077Z,8.85
2023-05-22T18:54:39.908Z,12.37
2023-05-22T18:59:43.315Z,9.27
2023-05-22T19:04:45.624Z,10.70
2023-05-22T19:09:47.404Z,11.02
2023-05-22T19:14:49.636Z,9.30
2023-05-22T19:19:51.406Z,10.65
2023-05-22T19:24:53.145Z,10.60
2023-05-22T19:29:55.210Z,11.70
2023-05-22T19:34:57.660Z,11.80
2023-05-22T19:39:59.385Z,13.57
2023-05-22T19:45:02.586Z,10.90
2023-05-22T19:50:04.831Z,13.07
2023-05-22T19:55:07.006Z,10.02
2023-05-22T20:00:10.955Z,9.75
2023-05-22T20:05:13.478Z,11.05
2023-05-22T20:10:16.088Z,11.25
2023-05-22T20:15:17.790Z,12.50
2023-05-22T20:20:20.289Z,13.60
2023-05-22T20:25:21.990Z,12.98
2023-05-22T20:30:24.492Z,11.83
2023-05-22T20:35:26.473Z,11.10
2023-05-22T20:40:29.695Z,17.13
2023-05-22T20:45:32.904Z,11.25
2023-05-22T20:50:36.522Z,11.90
2023-05-22T20:55:39.590Z,11.23
2023-05-22T21:00:42.174Z,11.80
2023-05-22T21:05:44.030Z,12.60
2023-05-22T21:10:45.949Z,10.70
2023-05-22T21:15:47.637Z,11.53
2023-05-22T21:20:50.120Z,11.20
2023-05-22T21:25:52.033Z,15.27
2023-05-22T21:30:54.145Z,13.07
2023-05-22T21:35:56.097Z,13.15
2023-05-22T21:40:57.882Z,14.27
2023-05-22T21:46:00.236Z,13.55
2023-05-22T21:51:01.950Z,16.10
2023-05-22T21:56:03.684Z,11.87
2023-05-22T22:01:05.980Z,13.83
2023-05-22T22:06:08.434Z,15.77
2023-05-22T22:11:10.732Z,14.50
2023-05-22T22:16:12.493Z,13.70
2023-05-22T22:21:15.401Z,14.70
2023-05-22T22:26:17.879Z,17.00
2023-05-22T22:31:19.661Z,15.43
2023-05-22T22:36:22.803Z,17.73
2023-05-22T22:41:24.535Z,16.38
2023-05-22T22:46:26.566Z,14.38
2023-05-22T22:51:30.790Z,17.57
2023-05-22T22:56:32.730Z,16.20
2023-05-22T23:01:34.558Z,18.40
2023-05-22T23:06:36.289Z,15.53
2023-05-22T23:11:38.634Z,15.30
2023-05-22T23:21:45.219Z,13.55
2023-05-22T23:26:47.193Z,16.13
2023-05-22T23:31:50.508Z,13.90
2023-05-22T23:36:52.423Z,15.80
2023-05-22T23:41:55.212Z,18.00
2023-05-22T23:46:57.348Z,16.02
2023-05-22T23:51:59.369Z,13.95
2023-05-22T23:57:01.162Z,14.93
